createdAt,value
2022-11-10T00:00:45.488Z,1.27
2022-11-10T00:03:12.553Z,1.40
2022-11-10T00:05:39.630Z,1.20
2022-11-10T00:08:14.210Z,1.10
2022-11-10T00:10:57.364Z,1.33
2022-11-10T00:13:35.483Z,1.50
2022-11-10T00:16:21.665Z,1.23
2022-11-10T00:18:48.523Z,1.20
2022-11-10T00:21:16.309Z,1.42
2022-11-10T00:23:43.470Z,1.30
2022-11-10T00:26:20.598Z,1.30
2022-11-10T00:28:47.662Z,1.63
2022-11-10T00:31:17.382Z,1.13
2022-11-10T00:33:47.830Z,1.20
2022-11-10T00:36:20.629Z,1.67
2022-11-10T00:38:50.209Z,1.55
2022-11-10T00:41:23.602Z,1.30
2022-11-10T00:43:53.641Z,1.80
2022-11-10T00:46:21.553Z,1.40
2022-11-10T00:48:48.639Z,1.50
2022-11-10T00:51:22.440Z,2.00
2022-11-10T00:53:49.553Z,1.30
2022-11-10T00:56:16.799Z,1.40
2022-11-10T00:58:46.773Z,1.25
2022-11-10T01:01:14.316Z,1.48
2022-11-10T01:03:41.801Z,1.38
2022-11-10T01:06:09.911Z,1.48
2022-11-10T01:08:43.631Z,1.23
2022-11-10T01:11:17.716Z,1.13
2022-11-10T01:13:47.724Z,1.30
2022-11-10T01:16:15.990Z,1.30
2022-11-10T01:18:45.276Z,1.20
2022-11-10T01:21:12.106Z,1.20
2022-11-10T01:23:42.078Z,1.40
2022-11-10T01:26:09.112Z,1.45
2022-11-10T01:28:39.793Z,1.50
2022-11-10T01:31:09.312Z,1.50
2022-11-10T01:33:39.628Z,1.20
2022-11-10T01:36:09.968Z,1.17
2022-11-10T01:38:40.362Z,1.30
2022-11-10T01:41:09.110Z,1.25
2022-11-10T01:43:36.097Z,1.15
2022-11-10T01:46:03.590Z,1.40
2022-11-10T01:48:34.225Z,1.05
2022-11-10T01:51:08.237Z,0.98
2022-11-10T01:53:39.490Z,1.35
2022-11-10T01:56:08.450Z,1.10
2022-11-10T01:58:40.526Z,1.30
2022-11-10T02:01:10.395Z,1.00
2022-11-10T02:03:46.486Z,0.90
2022-11-10T02:06:14.626Z,1.00
2022-11-10T02:08:45.169Z,1.15
2022-11-10T02:11:12.312Z,1.20
2022-11-10T02:13:43.287Z,1.00
2022-11-10T02:16:14.409Z,1.30
2022-11-10T02:18:42.114Z,0.80
2022-11-10T02:21:12.585Z,0.90
2022-11-10T02:23:39.731Z,1.10
2022-11-10T02:26:07.703Z,1.25
2022-11-10T02:28:38.436Z,1.20
2022-11-10T02:31:06.185Z,1.50
2022-11-10T02:33:33.714Z,1.00
2022-11-10T02:36:06.121Z,1.00
2022-11-10T02:38:36.566Z,1.10
2022-11-10T02:41:07.323Z,0.90
2022-11-10T02:43:38.101Z,1.25
2022-11-10T02:46:05.077Z,1.27
2022-11-10T02:48:34.560Z,1.33
2022-11-10T02:51:03.479Z,1.10
2022-11-10T02:53:33.630Z,0.85
2022-11-10T02:56:00.809Z,0.85
2022-11-10T02:58:27.925Z,1.00
2022-11-10T03:00:59.308Z,1.00
2022-11-10T03:03:29.311Z,0.82
2022-11-10T03:05:59.839Z,0.93
2022-11-10T03:08:29.437Z,0.88
2022-11-10T03:10:58.960Z,0.90
2022-11-10T03:13:32.244Z,0.70
2022-11-10T03:16:12.049Z,0.93
2022-11-10T03:18:38.864Z,0.90
2022-11-10T03:21:09.045Z,0.80
2022-11-10T03:23:36.546Z,0.98
2022-11-10T03:26:09.290Z,1.15
2022-11-10T03:28:36.274Z,0.95
2022-11-10T03:31:03.151Z,0.73
2022-11-10T03:33:36.643Z,0.80
2022-11-10T03:36:06.758Z,0.65
2022-11-10T03:38:34.065Z,0.63
2022-11-10T03:41:22.563Z,0.52
2022-11-10T03:43:59.238Z,0.60
2022-11-10T03:46:31.164Z,0.70
2022-11-10T03:48:58.431Z,0.60
2022-11-10T03:51:31.560Z,0.70
2022-11-10T03:53:58.627Z,0.70
2022-11-10T03:56:28.883Z,0.60
2022-11-10T03:58:58.812Z,0.60
2022-11-10T04:01:31.709Z,0.80
2022-11-10T04:04:01.121Z,0.70
2022-11-10T04:06:46.144Z,0.70
2022-11-10T04:09:18.640Z,0.70
2022-11-10T04:12:04.059Z,0.70
2022-11-10T04:14:49.726Z,0.70
2022-11-10T04:17:22.905Z,0.82
2022-11-10T04:19:52.833Z,0.80
2022-11-10T04:22:40.554Z,0.70
2022-11-10T04:25:10.199Z,1.50
2022-11-10T04:27:38.878Z,0.63
2022-11-10T04:30:06.316Z,0.73
2022-11-10T04:32:33.608Z,0.73
2022-11-10T04:35:00.479Z,0.60
2022-11-10T04:37:36.952Z,0.70
2022-11-10T04:40:04.445Z,0.63
2022-11-10T04:42:31.314Z,0.50
2022-11-10T04:45:01.160Z,0.68
2022-11-10T04:47:32.927Z,0.70
2022-11-10T04:50:00.005Z,0.85
2022-11-10T04:52:26.872Z,0.80
2022-11-10T04:54:56.912Z,0.77
2022-11-10T04:57:27.211Z,0.80
2022-11-10T05:00:02.125Z,0.80
2022-11-10T05:02:39.403Z,0.90
2022-11-10T05:05:09.880Z,0.70
2022-11-10T05:07:43.039Z,0.73
2022-11-10T05:10:16.124Z,0.85
2022-11-10T05:12:46.471Z,0.93
2022-11-10T05:15:19.635Z,1.05
2022-11-10T05:17:50.367Z,0.93
2022-11-10T05:20:26.184Z,0.73
2022-11-10T05:23:14.426Z,0.80
2022-11-10T05:25:43.067Z,1.00
2022-11-10T05:28:16.386Z,0.85
2022-11-10T05:30:46.874Z,0.93
2022-11-10T05:33:20.681Z,0.90
2022-11-10T05:35:49.232Z,0.90
2022-11-10T05:38:19.806Z,0.82
2022-11-10T05:40:46.917Z,0.90
2022-11-10T05:43:16.345Z,0.77
2022-11-10T05:45:43.346Z,0.88
2022-11-10T05:48:13.711Z,0.70
2022-11-10T05:50:40.718Z,1.13
2022-11-10T05:53:11.441Z,1.00
2022-11-10T05:55:43.228Z,1.10
2022-11-10T05:58:11.266Z,0.80
2022-11-10T06:00:38.271Z,0.70
2022-11-10T06:03:12.864Z,0.93
2022-11-10T06:05:41.281Z,0.80
2022-11-10T06:08:11.145Z,0.90
2022-11-10T06:10:43.633Z,0.77
2022-11-10T06:13:11.030Z,0.90
2022-11-10T06:15:49.126Z,0.90
2022-11-10T06:18:20.558Z,0.82
2022-11-10T06:20:47.960Z,0.70
2022-11-10T06:23:15.480Z,1.15
2022-11-10T06:25:45.706Z,0.90
2022-11-10T06:28:15.848Z,0.90
2022-11-10T06:30:42.868Z,0.88
2022-11-10T06:33:13.502Z,1.02
2022-11-10T06:35:40.482Z,0.73
2022-11-10T06:38:11.611Z,0.70
2022-11-10T06:40:47.270Z,0.88
2022-11-10T06:43:16.930Z,0.93
2022-11-10T06:45:43.959Z,1.00
2022-11-10T06:48:14.212Z,0.80
2022-11-10T06:51:17.305Z,1.02
2022-11-10T06:53:47.595Z,0.70
2022-11-10T06:56:17.688Z,0.70
2022-11-10T06:58:47.955Z,1.00
2022-11-10T07:01:22.811Z,0.88
2022-11-10T07:04:18.103Z,0.90
2022-11-10T07:06:44.271Z,1.02
2022-11-10T07:09:14.550Z,0.90
2022-11-10T07:12:00.266Z,0.80
2022-11-10T07:14:30.179Z,1.10
2022-11-10T07:17:00.833Z,1.10
2022-11-10T07:19:33.006Z,1.00
2022-11-10T07:22:06.639Z,1.02
2022-11-10T07:24:38.171Z,0.85
2022-11-10T07:27:10.393Z,1.20
2022-11-10T07:29:40.068Z,1.10
2022-11-10T07:32:10.136Z,1.10
2022-11-10T07:34:37.383Z,1.00
2022-11-10T07:37:06.996Z,0.80
2022-11-10T07:39:37.039Z,1.00
2022-11-10T07:42:07.051Z,1.20
2022-11-10T07:44:34.195Z,1.00
2022-11-10T07:47:01.349Z,1.00
2022-11-10T07:49:28.437Z,1.20
2022-11-10T07:52:00.404Z,0.95
2022-11-10T07:54:32.323Z,1.20
2022-11-10T07:57:02.094Z,1.40
2022-11-10T07:59:32.561Z,1.10
2022-11-10T08:02:05.459Z,0.45
2022-11-10T08:04:32.467Z,1.30
2022-11-10T08:07:02.677Z,1.08
2022-11-10T08:09:30.063Z,1.70
2022-11-10T08:12:00.271Z,1.70
2022-11-10T08:14:27.657Z,1.65
2022-11-10T08:16:59.444Z,1.55
2022-11-10T08:19:30.757Z,1.75
2022-11-10T08:21:57.624Z,1.33
2022-11-10T08:24:24.669Z,1.77
2022-11-10T08:26:54.090Z,1.63
2022-11-10T08:29:22.327Z,1.80
2022-11-10T08:31:49.451Z,1.65
2022-11-10T08:34:19.496Z,1.27
2022-11-10T08:36:48.646Z,1.83
2022-11-10T08:39:30.305Z,1.60
2022-11-10T08:42:02.431Z,2.20
2022-11-10T08:44:30.918Z,1.73
2022-11-10T08:47:01.449Z,1.20
2022-11-10T08:49:33.958Z,1.60
2022-11-10T08:52:03.470Z,1.83
2022-11-10T08:54:54.790Z,1.58
2022-11-10T08:57:21.709Z,1.33
2022-11-10T08:59:54.837Z,1.42
2022-11-10T09:02:21.762Z,1.52
2022-11-10T09:04:51.790Z,1.38
2022-11-10T09:07:19.394Z,1.10
2022-11-10T09:10:01.371Z,1.70
2022-11-10T09:12:36.407Z,1.80
2022-11-10T09:15:05.669Z,1.42
2022-11-10T09:17:35.405Z,1.33
2022-11-10T09:20:09.222Z,1.63
2022-11-10T09:22:36.782Z,1.30
2022-11-10T09:25:03.912Z,1.48
2022-11-10T09:27:30.913Z,1.20
2022-11-10T09:30:01.198Z,1.48
2022-11-10T09:32:28.250Z,1.27
2022-11-10T09:34:55.313Z,1.65
2022-11-10T09:37:22.217Z,1.80
2022-11-10T09:39:50.999Z,1.33
2022-11-10T09:42:30.266Z,1.73
2022-11-10T09:45:15.688Z,0.80
2022-11-10T09:48:01.926Z,1.80
2022-11-10T09:50:38.118Z,2.00
2022-11-10T09:53:06.481Z,1.30
2022-11-10T09:55:49.090Z,2.25
2022-11-10T09:58:16.555Z,1.85
2022-11-10T10:00:53.325Z,1.70
2022-11-10T10:03:29.758Z,1.73
2022-11-10T10:05:57.269Z,1.33
2022-11-10T10:08:27.749Z,1.60
2022-11-10T10:11:15.598Z,1.25
2022-11-10T10:14:00.638Z,1.67
2022-11-10T10:16:46.241Z,1.55
2022-11-10T10:19:24.494Z,1.33
2022-11-10T10:22:09.879Z,1.25
2022-11-10T10:24:41.118Z,1.48
2022-11-10T10:27:16.716Z,1.48
2022-11-10T10:29:45.735Z,1.58
2022-11-10T10:32:18.924Z,1.80
2022-11-10T10:34:49.352Z,1.38
2022-11-10T10:37:23.969Z,1.58
2022-11-10T10:39:54.160Z,1.85
2022-11-10T10:42:34.116Z,1.33
2022-11-10T10:45:19.672Z,1.08
2022-11-10T10:47:51.207Z,1.33
2022-11-10T10:50:29.033Z,1.88
2022-11-10T10:53:10.948Z,1.50
2022-11-10T10:55:38.479Z,1.70
2022-11-10T10:58:06.636Z,1.63
2022-11-10T11:00:42.431Z,1.75
2022-11-10T11:03:15.150Z,1.40
2022-11-10T11:05:42.209Z,1.63
2022-11-10T11:08:22.322Z,1.50
2022-11-10T11:10:49.805Z,1.60
2022-11-10T11:13:27.198Z,2.08
2022-11-10T11:16:12.964Z,1.35
2022-11-10T11:18:40.760Z,1.90
2022-11-10T11:21:32.190Z,1.60
2022-11-10T11:24:07.474Z,1.60
2022-11-10T11:26:37.569Z,1.13
2022-11-10T11:29:10.598Z,1.15
2022-11-10T11:31:49.358Z,1.20
2022-11-10T11:34:29.698Z,1.42
2022-11-10T11:37:11.129Z,1.52
2022-11-10T11:39:40.122Z,1.40
2022-11-10T11:42:19.263Z,1.30
2022-11-10T11:45:02.780Z,0.95
2022-11-10T11:47:36.423Z,1.42
2022-11-10T11:50:15.591Z,1.13
2022-11-10T11:52:54.632Z,1.25
2022-11-10T11:55:39.338Z,1.58
2022-11-10T11:58:24.451Z,1.20
2022-11-10T12:00:57.941Z,1.00
2022-11-10T12:03:30.400Z,1.15
2022-11-10T12:06:16.005Z,1.42
2022-11-10T12:08:46.170Z,1.60
2022-11-10T12:11:16.638Z,1.33
2022-11-10T12:13:43.600Z,1.17
2022-11-10T12:16:22.774Z,1.00
2022-11-10T12:18:58.797Z,1.23
2022-11-10T12:21:28.331Z,1.30
2022-11-10T12:23:55.708Z,1.10
2022-11-10T12:26:28.517Z,1.13
2022-11-10T12:29:05.201Z,1.15
2022-11-10T12:31:35.089Z,1.20
2022-11-10T12:34:05.650Z,0.88
2022-11-10T12:36:38.432Z,1.60
2022-11-10T12:39:16.877Z,1.52
2022-11-10T12:42:04.011Z,1.63
2022-11-10T12:44:44.083Z,1.25
2022-11-10T12:47:17.644Z,1.33
2022-11-10T12:49:52.484Z,1.42
2022-11-10T12:52:23.959Z,1.30
2022-11-10T12:54:50.856Z,1.92
2022-11-10T12:57:23.027Z,1.80
2022-11-10T13:00:07.108Z,1.45
2022-11-10T13:02:41.369Z,1.50
2022-11-10T13:05:14.602Z,1.38
2022-11-10T13:07:50.280Z,1.25
2022-11-10T13:10:26.466Z,1.23
2022-11-10T13:13:05.727Z,1.40
2022-11-10T13:15:38.646Z,1.17
2022-11-10T13:18:08.232Z,1.30
2022-11-10T13:20:52.027Z,1.35
2022-11-10T13:23:31.027Z,1.08
2022-11-10T13:26:05.003Z,1.20
2022-11-10T13:28:47.111Z,1.40
2022-11-10T13:31:31.685Z,1.20
2022-11-10T13:34:06.268Z,1.38
2022-11-10T13:36:46.590Z,1.23
2022-11-10T13:39:22.779Z,1.25
2022-11-10T13:42:08.038Z,1.00
2022-11-10T13:44:48.384Z,1.67
2022-11-10T13:47:40.479Z,1.42
2022-11-10T13:50:49.267Z,1.10
2022-11-10T13:53:22.644Z,1.10
2022-11-10T13:56:14.044Z,0.98
2022-11-10T13:58:43.196Z,1.75
2022-11-10T14:01:19.278Z,1.10
2022-11-10T14:03:49.174Z,1.67
2022-11-10T14:06:16.224Z,1.27
2022-11-10T14:08:52.009Z,1.00
2022-11-10T14:11:31.276Z,1.23
2022-11-10T14:14:02.803Z,1.20
2022-11-10T14:16:31.905Z,1.00
2022-11-10T14:19:06.541Z,1.02
2022-11-10T14:21:58.040Z,1.10
2022-11-10T14:24:33.684Z,1.30
2022-11-10T14:27:05.035Z,1.27
2022-11-10T14:29:38.639Z,1.48
2022-11-10T14:32:21.388Z,1.33
2022-11-10T14:34:52.596Z,1.60
2022-11-10T14:37:24.529Z,1.50
2022-11-10T14:40:10.404Z,1.50
2022-11-10T14:42:39.298Z,1.10
2022-11-10T14:45:07.521Z,1.20
2022-11-10T14:47:36.128Z,1.50
2022-11-10T14:50:09.062Z,1.50
2022-11-10T14:52:40.555Z,1.13
2022-11-10T14:55:09.003Z,1.40
2022-11-10T14:57:36.554Z,1.27
2022-11-10T15:00:09.135Z,1.30
2022-11-10T15:02:38.261Z,1.20
2022-11-10T15:05:05.645Z,1.77
2022-11-10T15:07:37.564Z,1.45
2022-11-10T15:10:06.989Z,1.70
2022-11-10T15:12:41.784Z,1.40
2022-11-10T15:15:18.075Z,1.50
2022-11-10T15:17:47.344Z,1.50
2022-11-10T15:20:31.750Z,1.20
2022-11-10T15:22:59.958Z,1.13
2022-11-10T15:25:38.328Z,0.95
2022-11-10T15:28:08.085Z,1.20
2022-11-10T15:30:37.531Z,1.30
2022-11-10T15:33:11.252Z,1.20
2022-11-10T15:35:38.268Z,1.10
2022-11-10T15:38:26.228Z,1.10
2022-11-10T15:40:59.118Z,1.33
2022-11-10T15:43:29.407Z,1.08
2022-11-10T15:46:00.367Z,1.33
2022-11-10T15:48:29.888Z,1.27
2022-11-10T15:51:02.041Z,1.33
2022-11-10T15:53:31.502Z,1.00
2022-11-10T15:55:59.552Z,1.45
2022-11-10T15:58:34.776Z,1.00
2022-11-10T16:01:02.169Z,1.15
2022-11-10T16:03:31.443Z,1.10
2022-11-10T16:05:58.370Z,1.00
2022-11-10T16:08:28.890Z,1.05
2022-11-10T16:10:56.946Z,0.95
2022-11-10T16:13:35.325Z,1.00
2022-11-10T16:16:02.174Z,1.02
2022-11-10T16:18:32.196Z,1.05
2022-11-10T16:20:59.281Z,0.98
2022-11-10T16:23:26.548Z,1.00
2022-11-10T16:25:55.086Z,1.55
2022-11-10T16:28:26.459Z,0.90
2022-11-10T16:30:56.929Z,1.42
2022-11-10T16:33:24.855Z,1.13
2022-11-10T16:35:53.530Z,1.20
2022-11-10T16:38:25.579Z,1.02
2022-11-10T16:40:59.831Z,1.08
2022-11-10T16:43:27.404Z,1.20
2022-11-10T16:45:59.173Z,1.25
2022-11-10T16:48:30.251Z,1.05
2022-11-10T16:50:58.291Z,1.00
2022-11-10T16:53:27.395Z,1.17
2022-11-10T16:55:57.646Z,1.13
2022-11-10T16:58:28.503Z,1.13
2022-11-10T17:00:59.647Z,1.25
2022-11-10T17:03:32.406Z,1.10
2022-11-10T17:05:59.691Z,0.98
2022-11-10T17:08:28.209Z,1.10
2022-11-10T17:10:58.453Z,1.00
2022-11-10T17:13:25.852Z,1.00
2022-11-10T17:15:53.999Z,0.98
2022-11-10T17:18:24.593Z,0.90
2022-11-10T17:20:52.391Z,1.00
2022-11-10T17:23:23.000Z,0.90
2022-11-10T17:25:51.025Z,1.20
2022-11-10T17:28:24.208Z,0.90
2022-11-10T17:30:57.456Z,1.00
2022-11-10T17:33:24.906Z,0.93
2022-11-10T17:35:56.230Z,1.20
2022-11-10T17:38:27.612Z,1.08
2022-11-10T17:41:00.818Z,1.20
2022-11-10T17:43:28.199Z,1.08
2022-11-10T17:45:58.224Z,1.08
2022-11-10T17:48:33.011Z,1.00
2022-11-10T17:51:03.374Z,1.15
2022-11-10T17:53:33.555Z,1.17
2022-11-10T17:56:04.328Z,1.20
2022-11-10T17:58:36.468Z,1.10
2022-11-10T18:01:14.310Z,1.10
2022-11-10T18:03:41.289Z,0.98
2022-11-10T18:06:08.242Z,1.50
2022-11-10T18:08:42.454Z,1.00
2022-11-10T18:11:10.657Z,1.10
2022-11-10T18:13:38.379Z,0.90
2022-11-10T18:16:05.762Z,1.23
2022-11-10T18:18:35.884Z,0.95
2022-11-10T18:21:06.734Z,1.25
2022-11-10T18:23:33.790Z,1.02
2022-11-10T18:26:08.256Z,0.90
2022-11-10T18:28:35.524Z,1.10
2022-11-10T18:31:07.087Z,1.08
2022-11-10T18:33:37.116Z,1.00
2022-11-10T18:36:04.407Z,1.10
2022-11-10T18:38:32.091Z,0.90
2022-11-10T18:41:26.228Z,1.10
2022-11-10T18:43:53.240Z,1.00
2022-11-10T18:46:21.883Z,1.13
2022-11-10T18:48:49.036Z,1.00
2022-11-10T18:51:19.508Z,1.27
2022-11-10T18:53:46.481Z,1.50
2022-11-10T18:56:16.732Z,1.10
2022-11-10T18:58:50.203Z,0.90
2022-11-10T19:01:20.733Z,1.00
2022-11-10T19:03:47.762Z,0.90
2022-11-10T19:06:18.590Z,0.90
2022-11-10T19:08:47.184Z,1.00
2022-11-10T19:11:14.831Z,1.10
2022-11-10T19:13:48.563Z,1.00
2022-11-10T19:16:17.030Z,0.85
2022-11-10T19:18:44.528Z,1.15
2022-11-10T19:21:16.046Z,1.20
2022-11-10T19:23:43.117Z,1.10
2022-11-10T19:26:12.066Z,1.00
2022-11-10T19:28:39.029Z,1.02
2022-11-10T19:31:07.972Z,0.88
2022-11-10T19:33:39.732Z,1.00
2022-11-10T19:36:16.247Z,0.80
2022-11-10T19:38:46.738Z,1.10
2022-11-10T19:41:18.111Z,0.90
2022-11-10T19:43:48.433Z,0.88
2022-11-10T19:46:24.569Z,0.75
2022-11-10T19:48:51.680Z,1.00
2022-11-10T19:51:22.449Z,1.00
2022-11-10T19:53:51.132Z,1.00
2022-11-10T19:56:27.734Z,1.10
2022-11-10T19:58:58.988Z,1.20
2022-11-10T20:01:26.974Z,1.20
2022-11-10T20:03:57.078Z,1.23
2022-11-10T20:06:26.591Z,1.00
2022-11-10T20:08:56.778Z,0.82
2022-11-10T20:11:27.897Z,1.08
2022-11-10T20:13:56.512Z,1.00
2022-11-10T20:16:23.654Z,0.88
2022-11-10T20:18:52.040Z,1.15
2022-11-10T20:21:23.085Z,1.08
2022-11-10T20:23:54.429Z,0.93
2022-11-10T20:26:21.960Z,0.90
2022-11-10T20:28:57.275Z,1.33
2022-11-10T20:31:26.213Z,0.88
2022-11-10T20:33:54.966Z,0.90
2022-11-10T20:36:31.897Z,0.98
2022-11-10T20:39:00.849Z,1.10
2022-11-10T20:41:33.286Z,1.10
2022-11-10T20:46:59.879Z,1.08
2022-11-10T20:49:26.875Z,0.98
2022-11-10T20:51:59.792Z,1.10
2022-11-10T20:54:27.207Z,0.90
2022-11-10T20:56:54.552Z,1.10
2022-11-10T20:59:27.949Z,1.08
2022-11-10T21:01:58.685Z,0.73
2022-11-10T21:04:31.149Z,1.02
2022-11-10T21:07:03.580Z,1.10
2022-11-10T21:09:30.970Z,0.93
2022-11-10T21:12:16.213Z,1.10
2022-11-10T21:14:46.032Z,1.10
2022-11-10T21:17:19.209Z,1.05
2022-11-10T21:19:46.088Z,1.20
2022-11-10T21:22:15.922Z,1.00
2022-11-10T21:24:43.116Z,0.98
2022-11-10T21:27:10.791Z,1.10
2022-11-10T21:29:38.214Z,1.23
2022-11-10T21:32:05.288Z,1.10
2022-11-10T21:34:33.156Z,1.10
2022-11-10T21:37:06.524Z,1.17
2022-11-10T21:39:36.404Z,1.00
2022-11-10T21:42:06.605Z,1.00
2022-11-10T21:44:39.070Z,1.23
2022-11-10T21:47:09.481Z,1.23
2022-11-10T21:49:38.922Z,1.13
2022-11-10T21:52:12.675Z,1.13
2022-11-10T21:54:42.789Z,1.10
2022-11-10T21:57:11.364Z,1.15
2022-11-10T21:59:44.308Z,1.05
2022-11-10T22:02:16.738Z,1.00
2022-11-10T22:04:46.644Z,1.10
2022-11-10T22:07:25.756Z,1.27
2022-11-10T22:10:29.787Z,0.98
2022-11-10T22:13:14.944Z,1.05
2022-11-10T22:16:00.627Z,1.10
2022-11-10T22:18:42.270Z,1.08
2022-11-10T22:21:12.437Z,0.98
2022-11-10T22:24:00.159Z,1.35
2022-11-10T22:26:30.106Z,1.38
2022-11-10T22:29:00.233Z,1.38
2022-11-10T22:31:30.262Z,1.30
2022-11-10T22:33:57.227Z,1.13
2022-11-10T22:36:27.214Z,1.55
2022-11-10T22:38:59.173Z,1.13
2022-11-10T22:41:47.092Z,1.10
2022-11-10T22:44:18.622Z,1.23
2022-11-10T22:46:52.979Z,1.00
2022-11-10T22:49:20.717Z,1.00
2022-11-10T22:51:51.906Z,1.00
2022-11-10T22:54:23.234Z,1.27
2022-11-10T22:56:51.208Z,1.15
2022-11-10T22:59:20.148Z,1.15
2022-11-10T23:01:47.055Z,1.42
2022-11-10T23:04:19.771Z,1.30
2022-11-10T23:06:50.061Z,1.25
2022-11-10T23:09:16.998Z,1.05
2022-11-10T23:11:43.828Z,1.10
2022-11-10T23:14:10.792Z,1.30
2022-11-10T23:16:41.097Z,1.00
2022-11-10T23:19:11.337Z,1.10
2022-11-10T23:21:38.631Z,1.10
2022-11-10T23:24:08.773Z,1.10
2022-11-10T23:26:35.610Z,1.13
2022-11-10T23:29:05.336Z,1.45
2022-11-10T23:31:32.581Z,1.08
2022-11-10T23:34:01.329Z,1.60
2022-11-10T23:36:28.297Z,1.20
2022-11-10T23:39:00.784Z,1.00
2022-11-10T23:41:30.498Z,1.17
2022-11-10T23:43:58.332Z,1.20
2022-11-10T23:46:27.892Z,1.40
2022-11-10T23:48:58.998Z,1.23
2022-11-10T23:51:29.305Z,1.23
2022-11-10T23:53:56.278Z,1.10
2022-11-10T23:56:28.294Z,1.33
2022-11-10T23:58:58.282Z,1.25
